sensor_id;sensor_type;location;lat;lon;timestamp;temperature;humidity
11772;DHT22;12556;55.748;13.194;2023-08-21T00:01:58;16.90;99.90
11772;DHT22;12556;55.748;13.194;2023-08-21T00:04:25;16.90;99.90
11772;DHT22;12556;55.748;13.194;2023-08-21T00:06:52;16.90;99.90
11772;DHT22;12556;55.748;13.194;2023-08-21T00:09:19;16.90;99.90
11772;DHT22;12556;55.748;13.194;2023-08-21T00:11:47;16.90;99.90
11772;DHT22;12556;55.748;13.194;2023-08-21T00:14:14;16.80;99.90
11772;DHT22;12556;55.748;13.194;2023-08-21T00:16:41;16.80;99.90
11772;DHT22;12556;55.748;13.194;2023-08-21T00:19:08;16.80;99.90
11772;DHT22;12556;55.748;13.194;2023-08-21T00:21:35;16.80;99.90
11772;DHT22;12556;55.748;13.194;2023-08-21T00:24:02;16.80;99.90
11772;DHT22;12556;55.748;13.194;2023-08-21T00:26:29;16.80;99.90
11772;DHT22;12556;55.748;13.194;2023-08-21T00:28:57;16.80;99.90
11772;DHT22;12556;55.748;13.194;2023-08-21T00:31:24;16.70;99.90
11772;DHT22;12556;55.748;13.194;2023-08-21T00:33:51;16.70;99.90
11772;DHT22;12556;55.748;13.194;2023-08-21T00:36:18;16.70;99.90
11772;DHT22;12556;55.748;13.194;2023-08-21T00:38:46;16.70;99.90
11772;DHT22;12556;55.748;13.194;2023-08-21T00:41:13;16.70;99.90
11772;DHT22;12556;55.748;13.194;2023-08-21T00:43:40;16.70;99.90
11772;DHT22;12556;55.748;13.194;2023-08-21T00:46:08;16.70;99.90
11772;DHT22;12556;55.748;13.194;2023-08-21T00:48:36;16.70;99.90
11772;DHT22;12556;55.748;13.194;2023-08-21T00:51:04;16.70;99.90
11772;DHT22;12556;55.748;13.194;2023-08-21T00:53:32;16.60;99.90
11772;DHT22;12556;55.748;13.194;2023-08-21T00:55:59;16.60;99.90
11772;DHT22;12556;55.748;13.194;2023-08-21T00:58:26;16.60;99.90
11772;DHT22;12556;55.748;13.194;2023-08-21T01:00:53;16.60;99.90
11772;DHT22;12556;55.748;13.194;2023-08-21T01:03:22;16.60;99.90
11772;DHT22;12556;55.748;13.194;2023-08-21T01:05:49;16.50;99.90
11772;DHT22;12556;55.748;13.194;2023-08-21T01:08:23;16.50;99.90
11772;DHT22;12556;55.748;13.194;2023-08-21T01:10:55;16.50;99.90
11772;DHT22;12556;55.748;13.194;2023-08-21T01:13:31;16.50;99.90
11772;DHT22;12556;55.748;13.194;2023-08-21T01:15:59;16.50;99.90
11772;DHT22;12556;55.748;13.194;2023-08-21T01:18:28;16.40;99.90
11772;DHT22;12556;55.748;13.194;2023-08-21T01:20:56;16.50;99.90
11772;DHT22;12556;55.748;13.194;2023-08-21T01:23:33;16.50;99.90
11772;DHT22;12556;55.748;13.194;2023-08-21T01:26:00;16.40;99.90
11772;DHT22;12556;55.748;13.194;2023-08-21T01:28:28;16.40;99.90
11772;DHT22;12556;55.748;13.194;2023-08-21T01:31:00;16.40;99.90
11772;DHT22;12556;55.748;13.194;2023-08-21T01:33:30;16.40;99.90
11772;DHT22;12556;55.748;13.194;2023-08-21T01:36:03;16.40;99.90
11772;DHT22;12556;55.748;13.194;2023-08-21T01:38:32;16.40;99.90
11772;DHT22;12556;55.748;13.194;2023-08-21T01:41:01;16.40;99.90
11772;DHT22;12556;55.748;13.194;2023-08-21T01:43:28;16.40;99.90
11772;DHT22;12556;55.748;13.194;2023-08-21T01:45:55;16.40;99.90
11772;DHT22;12556;55.748;13.194;2023-08-21T01:48:22;16.40;99.90
11772;DHT22;12556;55.748;13.194;2023-08-21T01:50:49;16.40;99.90
11772;DHT22;12556;55.748;13.194;2023-08-21T01:53:16;16.40;99.90
11772;DHT22;12556;55.748;13.194;2023-08-21T01:55:44;16.40;99.90
11772;DHT22;12556;55.748;13.194;2023-08-21T01:58:11;16.40;99.90
11772;DHT22;12556;55.748;13.194;2023-08-21T02:00:38;16.40;99.90
11772;DHT22;12556;55.748;13.194;2023-08-21T02:03:06;16.40;99.90
11772;DHT22;12556;55.748;13.194;2023-08-21T02:05:37;16.40;99.90
11772;DHT22;12556;55.748;13.194;2023-08-21T02:08:04;16.40;99.90
11772;DHT22;12556;55.748;13.194;2023-08-21T02:10:31;16.40;99.90
11772;DHT22;12556;55.748;13.194;2023-08-21T02:13:00;16.40;99.90
11772;DHT22;12556;55.748;13.194;2023-08-21T02:15:27;16.30;99.90
11772;DHT22;12556;55.748;13.194;2023-08-21T02:17:54;16.30;99.90
11772;DHT22;12556;55.748;13.194;2023-08-21T02:20:21;16.30;99.90
11772;DHT22;12556;55.748;13.194;2023-08-21T02:22:47;16.30;99.90
11772;DHT22;12556;55.748;13.194;2023-08-21T02:25:14;16.30;99.90
11772;DHT22;12556;55.748;13.194;2023-08-21T02:27:41;16.20;99.90
11772;DHT22;12556;55.748;13.194;2023-08-21T02:30:10;16.20;99.90
11772;DHT22;12556;55.748;13.194;2023-08-21T02:32:37;16.20;99.90
11772;DHT22;12556;55.748;13.194;2023-08-21T02:35:06;16.20;99.90
11772;DHT22;12556;55.748;13.194;2023-08-21T02:37:33;16.20;99.90
11772;DHT22;12556;55.748;13.194;2023-08-21T02:40:05;16.20;99.90
11772;DHT22;12556;55.748;13.194;2023-08-21T02:42:34;16.20;99.90
11772;DHT22;12556;55.748;13.194;2023-08-21T02:45:01;16.20;99.90
11772;DHT22;12556;55.748;13.194;2023-08-21T02:47:35;16.20;99.90
11772;DHT22;12556;55.748;13.194;2023-08-21T02:50:02;16.20;99.90
11772;DHT22;12556;55.748;13.194;2023-08-21T02:52:29;16.20;99.90
11772;DHT22;12556;55.748;13.194;2023-08-21T02:54:56;16.20;99.90
11772;DHT22;12556;55.748;13.194;2023-08-21T02:57:23;16.20;99.90
11772;DHT22;12556;55.748;13.194;2023-08-21T02:59:50;16.20;99.90
11772;DHT22;12556;55.748;13.194;2023-08-21T03:02:17;16.20;99.90
11772;DHT22;12556;55.748;13.194;2023-08-21T03:04:46;16.20;99.90
11772;DHT22;12556;55.748;13.194;2023-08-21T03:07:13;16.30;99.90
11772;DHT22;12556;55.748;13.194;2023-08-21T03:09:41;16.30;99.90
11772;DHT22;12556;55.748;13.194;2023-08-21T03:12:08;16.30;99.90
11772;DHT22;12556;55.748;13.194;2023-08-21T03:14:35;16.30;99.90
11772;DHT22;12556;55.748;13.194;2023-08-21T03:17:02;16.30;99.90
11772;DHT22;12556;55.748;13.194;2023-08-21T03:19:29;16.30;99.90
11772;DHT22;12556;55.748;13.194;2023-08-21T03:21:57;16.40;99.90
11772;DHT22;12556;55.748;13.194;2023-08-21T03:24:24;16.40;99.90
11772;DHT22;12556;55.748;13.194;2023-08-21T03:26:51;16.40;99.90
11772;DHT22;12556;55.748;13.194;2023-08-21T03:29:18;16.40;99.90
11772;DHT22;12556;55.748;13.194;2023-08-21T03:31:49;16.40;99.90
11772;DHT22;12556;55.748;13.194;2023-08-21T03:34:16;16.40;99.90
11772;DHT22;12556;55.748;13.194;2023-08-21T03:36:43;16.40;99.90
11772;DHT22;12556;55.748;13.194;2023-08-21T03:39:11;16.40;99.90
11772;DHT22;12556;55.748;13.194;2023-08-21T03:41:38;16.40;99.90
11772;DHT22;12556;55.748;13.194;2023-08-21T03:44:06;16.40;99.90
11772;DHT22;12556;55.748;13.194;2023-08-21T03:46:33;16.40;99.90
11772;DHT22;12556;55.748;13.194;2023-08-21T03:49:00;16.40;99.90
11772;DHT22;12556;55.748;13.194;2023-08-21T03:51:26;16.40;99.90
11772;DHT22;12556;55.748;13.194;2023-08-21T03:53:53;16.40;99.90
11772;DHT22;12556;55.748;13.194;2023-08-21T03:56:22;16.40;99.90
11772;DHT22;12556;55.748;13.194;2023-08-21T03:58:49;16.40;99.90
11772;DHT22;12556;55.748;13.194;2023-08-21T04:01:16;16.40;99.90
11772;DHT22;12556;55.748;13.194;2023-08-21T04:03:42;16.40;99.90
11772;DHT22;12556;55.748;13.194;2023-08-21T04:06:09;16.40;99.90
11772;DHT22;12556;55.748;13.194;2023-08-21T04:08:36;16.30;99.90
11772;DHT22;12556;55.748;13.194;2023-08-21T04:11:05;16.30;99.90
11772;DHT22;12556;55.748;13.194;2023-08-21T04:13:33;16.30;99.90
11772;DHT22;12556;55.748;13.194;2023-08-21T04:16:00;16.30;99.90
11772;DHT22;12556;55.748;13.194;2023-08-21T04:18:27;16.20;99.90
11772;DHT22;12556;55.748;13.194;2023-08-21T04:20:54;16.20;99.90
11772;DHT22;12556;55.748;13.194;2023-08-21T04:23:21;16.20;99.90
11772;DHT22;12556;55.748;13.194;2023-08-21T04:25:48;16.20;99.90
11772;DHT22;12556;55.748;13.194;2023-08-21T04:28:15;16.20;99.90
11772;DHT22;12556;55.748;13.194;2023-08-21T04:30:43;16.20;99.90
11772;DHT22;12556;55.748;13.194;2023-08-21T04:33:10;16.20;99.90
11772;DHT22;12556;55.748;13.194;2023-08-21T04:35:37;16.20;99.90
11772;DHT22;12556;55.748;13.194;2023-08-21T04:38:04;16.20;99.90
11772;DHT22;12556;55.748;13.194;2023-08-21T04:40:32;16.20;99.90
11772;DHT22;12556;55.748;13.194;2023-08-21T04:42:59;16.30;99.90
11772;DHT22;12556;55.748;13.194;2023-08-21T04:45:26;16.30;99.90
11772;DHT22;12556;55.748;13.194;2023-08-21T04:47:54;16.30;99.90
11772;DHT22;12556;55.748;13.194;2023-08-21T04:50:21;16.40;99.90
11772;DHT22;12556;55.748;13.194;2023-08-21T04:52:48;16.40;99.90
11772;DHT22;12556;55.748;13.194;2023-08-21T04:55:16;16.50;99.90
11772;DHT22;12556;55.748;13.194;2023-08-21T04:57:42;16.50;99.90
11772;DHT22;12556;55.748;13.194;2023-08-21T05:00:10;16.60;99.90
11772;DHT22;12556;55.748;13.194;2023-08-21T05:02:37;16.60;99.90
11772;DHT22;12556;55.748;13.194;2023-08-21T05:05:06;16.70;99.90
11772;DHT22;12556;55.748;13.194;2023-08-21T05:07:34;16.70;99.90
11772;DHT22;12556;55.748;13.194;2023-08-21T05:10:01;16.80;99.90
11772;DHT22;12556;55.748;13.194;2023-08-21T05:12:29;16.80;99.90
11772;DHT22;12556;55.748;13.194;2023-08-21T05:14:56;16.90;99.90
11772;DHT22;12556;55.748;13.194;2023-08-21T05:17:24;17.00;99.90
11772;DHT22;12556;55.748;13.194;2023-08-21T05:19:51;17.00;99.90
11772;DHT22;12556;55.748;13.194;2023-08-21T05:22:19;17.10;99.90
11772;DHT22;12556;55.748;13.194;2023-08-21T05:24:46;17.20;99.90
11772;DHT22;12556;55.748;13.194;2023-08-21T05:27:13;17.30;99.90
11772;DHT22;12556;55.748;13.194;2023-08-21T05:29:40;17.30;99.90
11772;DHT22;12556;55.748;13.194;2023-08-21T05:32:07;17.40;99.90
11772;DHT22;12556;55.748;13.194;2023-08-21T05:34:33;17.50;99.90
11772;DHT22;12556;55.748;13.194;2023-08-21T05:37:00;17.60;99.90
11772;DHT22;12556;55.748;13.194;2023-08-21T05:39:29;17.70;99.90
11772;DHT22;12556;55.748;13.194;2023-08-21T05:41:56;17.70;99.90
11772;DHT22;12556;55.748;13.194;2023-08-21T05:44:24;17.90;99.90
11772;DHT22;12556;55.748;13.194;2023-08-21T05:46:51;18.00;99.90
11772;DHT22;12556;55.748;13.194;2023-08-21T05:49:18;18.10;99.90
11772;DHT22;12556;55.748;13.194;2023-08-21T05:51:45;18.10;99.90
11772;DHT22;12556;55.748;13.194;2023-08-21T05:54:11;18.20;99.90
11772;DHT22;12556;55.748;13.194;2023-08-21T05:56:40;18.40;99.90
11772;DHT22;12556;55.748;13.194;2023-08-21T05:59:10;18.40;99.90
11772;DHT22;12556;55.748;13.194;2023-08-21T06:01:37;18.50;99.90
11772;DHT22;12556;55.748;13.194;2023-08-21T06:04:04;18.60;99.90
11772;DHT22;12556;55.748;13.194;2023-08-21T06:06:31;18.70;99.90
11772;DHT22;12556;55.748;13.194;2023-08-21T06:08:58;18.80;99.90
11772;DHT22;12556;55.748;13.194;2023-08-21T06:11:25;18.90;99.90
11772;DHT22;12556;55.748;13.194;2023-08-21T06:13:53;18.90;99.90
11772;DHT22;12556;55.748;13.194;2023-08-21T06:16:20;19.00;99.90
11772;DHT22;12556;55.748;13.194;2023-08-21T06:18:47;19.10;99.90
11772;DHT22;12556;55.748;13.194;2023-08-21T06:21:14;19.20;99.90
11772;DHT22;12556;55.748;13.194;2023-08-21T06:23:41;19.20;99.90
11772;DHT22;12556;55.748;13.194;2023-08-21T06:26:08;19.20;99.90
11772;DHT22;12556;55.748;13.194;2023-08-21T06:28:35;19.20;99.90
11772;DHT22;12556;55.748;13.194;2023-08-21T06:31:03;19.30;99.90
11772;DHT22;12556;55.748;13.194;2023-08-21T06:33:33;19.40;99.90
11772;DHT22;12556;55.748;13.194;2023-08-21T06:35:59;19.50;99.90
11772;DHT22;12556;55.748;13.194;2023-08-21T06:38:26;19.60;99.90
11772;DHT22;12556;55.748;13.194;2023-08-21T06:40:53;19.60;99.90
11772;DHT22;12556;55.748;13.194;2023-08-21T06:43:20;19.70;99.90
11772;DHT22;12556;55.748;13.194;2023-08-21T06:45:47;19.70;99.90
11772;DHT22;12556;55.748;13.194;2023-08-21T06:48:16;19.70;99.90
11772;DHT22;12556;55.748;13.194;2023-08-21T06:50:44;19.80;99.90
11772;DHT22;12556;55.748;13.194;2023-08-21T06:53:11;20.00;99.90
11772;DHT22;12556;55.748;13.194;2023-08-21T06:55:38;20.10;99.90
11772;DHT22;12556;55.748;13.194;2023-08-21T06:58:05;20.30;99.90
11772;DHT22;12556;55.748;13.194;2023-08-21T07:00:31;20.30;99.90
11772;DHT22;12556;55.748;13.194;2023-08-21T07:02:58;20.30;99.90
11772;DHT22;12556;55.748;13.194;2023-08-21T07:05:27;20.40;99.90
11772;DHT22;12556;55.748;13.194;2023-08-21T07:07:54;20.50;99.90
11772;DHT22;12556;55.748;13.194;2023-08-21T07:10:21;20.70;99.90
11772;DHT22;12556;55.748;13.194;2023-08-21T07:12:48;20.70;99.90
11772;DHT22;12556;55.748;13.194;2023-08-21T07:15:15;20.70;99.90
11772;DHT22;12556;55.748;13.194;2023-08-21T07:17:42;20.80;99.90
11772;DHT22;12556;55.748;13.194;2023-08-21T07:20:09;20.80;99.90
11772;DHT22;12556;55.748;13.194;2023-08-21T07:22:38;20.90;99.90
11772;DHT22;12556;55.748;13.194;2023-08-21T07:25:06;20.90;99.90
11772;DHT22;12556;55.748;13.194;2023-08-21T07:27:33;20.90;99.90
11772;DHT22;12556;55.748;13.194;2023-08-21T07:29:59;21.00;99.90
11772;DHT22;12556;55.748;13.194;2023-08-21T07:32:26;21.10;99.90
11772;DHT22;12556;55.748;13.194;2023-08-21T07:34:54;21.20;99.90
11772;DHT22;12556;55.748;13.194;2023-08-21T07:37:20;21.30;99.90
11772;DHT22;12556;55.748;13.194;2023-08-21T07:39:49;21.30;99.90
11772;DHT22;12556;55.748;13.194;2023-08-21T07:42:16;21.50;99.90
11772;DHT22;12556;55.748;13.194;2023-08-21T07:44:44;21.60;99.90
11772;DHT22;12556;55.748;13.194;2023-08-21T07:47:11;21.70;99.90
11772;DHT22;12556;55.748;13.194;2023-08-21T07:49:38;21.70;99.90
11772;DHT22;12556;55.748;13.194;2023-08-21T07:52:05;21.90;99.90
11772;DHT22;12556;55.748;13.194;2023-08-21T07:54:32;22.00;99.90
11772;DHT22;12556;55.748;13.194;2023-08-21T07:57:01;22.20;99.90
11772;DHT22;12556;55.748;13.194;2023-08-21T07:59:29;22.30;99.90
11772;DHT22;12556;55.748;13.194;2023-08-21T08:01:56;22.40;99.90
11772;DHT22;12556;55.748;13.194;2023-08-21T08:04:23;22.40;99.90
11772;DHT22;12556;55.748;13.194;2023-08-21T08:06:50;22.40;99.90
11772;DHT22;12556;55.748;13.194;2023-08-21T08:09:17;22.40;99.90
11772;DHT22;12556;55.748;13.194;2023-08-21T08:11:44;22.50;99.90
11772;DHT22;12556;55.748;13.194;2023-08-21T08:14:13;22.60;99.90
11772;DHT22;12556;55.748;13.194;2023-08-21T08:16:40;22.70;99.90
11772;DHT22;12556;55.748;13.194;2023-08-21T08:19:07;22.80;99.90
11772;DHT22;12556;55.748;13.194;2023-08-21T08:21:34;22.90;99.90
11772;DHT22;12556;55.748;13.194;2023-08-21T08:24:02;23.00;99.90
11772;DHT22;12556;55.748;13.194;2023-08-21T08:26:29;23.10;99.90
11772;DHT22;12556;55.748;13.194;2023-08-21T08:28:56;23.20;99.90
11772;DHT22;12556;55.748;13.194;2023-08-21T08:31:24;23.20;99.90
11772;DHT22;12556;55.748;13.194;2023-08-21T08:33:53;23.30;99.90
11772;DHT22;12556;55.748;13.194;2023-08-21T08:36:19;23.60;99.90
11772;DHT22;12556;55.748;13.194;2023-08-21T08:38:47;23.80;99.90
11772;DHT22;12556;55.748;13.194;2023-08-21T08:41:33;23.90;99.90
11772;DHT22;12556;55.748;13.194;2023-08-21T08:44:02;24.00;99.90
11772;DHT22;12556;55.748;13.194;2023-08-21T08:46:31;24.00;99.90
11772;DHT22;12556;55.748;13.194;2023-08-21T08:48:58;24.10;99.90
11772;DHT22;12556;55.748;13.194;2023-08-21T08:51:28;24.20;99.90
11772;DHT22;12556;55.748;13.194;2023-08-21T08:53:58;24.10;99.90
11772;DHT22;12556;55.748;13.194;2023-08-21T08:56:25;24.20;99.90
11772;DHT22;12556;55.748;13.194;2023-08-21T08:58:52;24.10;99.90
11772;DHT22;12556;55.748;13.194;2023-08-21T09:01:19;24.10;99.90
11772;DHT22;12556;55.748;13.194;2023-08-21T09:03:47;24.20;99.90
11772;DHT22;12556;55.748;13.194;2023-08-21T09:06:15;24.20;99.90
11772;DHT22;12556;55.748;13.194;2023-08-21T09:08:53;24.10;99.90
11772;DHT22;12556;55.748;13.194;2023-08-21T09:11:20;24.30;99.90
11772;DHT22;12556;55.748;13.194;2023-08-21T09:13:49;24.20;99.90
11772;DHT22;12556;55.748;13.194;2023-08-21T09:16:17;24.20;99.90
11772;DHT22;12556;55.748;13.194;2023-08-21T09:18:50;24.10;99.90
11772;DHT22;12556;55.748;13.194;2023-08-21T09:21:19;24.20;99.90
11772;DHT22;12556;55.748;13.194;2023-08-21T09:23:46;24.30;99.90
11772;DHT22;12556;55.748;13.194;2023-08-21T09:26:18;24.30;99.90
11772;DHT22;12556;55.748;13.194;2023-08-21T09:28:46;24.60;99.90
11772;DHT22;12556;55.748;13.194;2023-08-21T09:31:13;24.60;99.90
11772;DHT22;12556;55.748;13.194;2023-08-21T09:33:40;24.80;99.90
11772;DHT22;12556;55.748;13.194;2023-08-21T09:36:09;24.90;99.90
11772;DHT22;12556;55.748;13.194;2023-08-21T09:38:38;24.80;99.90
11772;DHT22;12556;55.748;13.194;2023-08-21T09:41:06;24.90;99.90
11772;DHT22;12556;55.748;13.194;2023-08-21T09:43:41;24.80;99.90
11772;DHT22;12556;55.748;13.194;2023-08-21T09:46:09;24.70;99.90
11772;DHT22;12556;55.748;13.194;2023-08-21T09:48:41;24.70;99.90
11772;DHT22;12556;55.748;13.194;2023-08-21T09:51:10;24.70;99.90
11772;DHT22;12556;55.748;13.194;2023-08-21T09:53:37;24.80;99.90
11772;DHT22;12556;55.748;13.194;2023-08-21T09:56:05;25.00;99.90
11772;DHT22;12556;55.748;13.194;2023-08-21T09:58:32;25.10;99.90
11772;DHT22;12556;55.748;13.194;2023-08-21T10:01:04;25.20;99.90
11772;DHT22;12556;55.748;13.194;2023-08-21T10:03:34;25.40;99.90
11772;DHT22;12556;55.748;13.194;2023-08-21T10:06:02;25.40;99.90
11772;DHT22;12556;55.748;13.194;2023-08-21T10:08:31;25.60;99.90
11772;DHT22;12556;55.748;13.194;2023-08-21T10:11:04;25.80;99.90
11772;DHT22;12556;55.748;13.194;2023-08-21T10:13:32;25.90;99.90
11772;DHT22;12556;55.748;13.194;2023-08-21T10:16:00;26.10;99.90
11772;DHT22;12556;55.748;13.194;2023-08-21T10:18:30;26.40;99.90
11772;DHT22;12556;55.748;13.194;2023-08-21T10:21:10;26.40;99.90
11772;DHT22;12556;55.748;13.194;2023-08-21T10:23:39;26.10;99.90
11772;DHT22;12556;55.748;13.194;2023-08-21T10:26:09;26.00;99.90
11772;DHT22;12556;55.748;13.194;2023-08-21T10:28:50;26.10;99.90
11772;DHT22;12556;55.748;13.194;2023-08-21T10:31:26;26.10;99.60
11772;DHT22;12556;55.748;13.194;2023-08-21T10:33:53;25.80;99.50
11772;DHT22;12556;55.748;13.194;2023-08-21T10:36:38;25.80;99.90
11772;DHT22;12556;55.748;13.194;2023-08-21T10:39:13;25.90;99.80
11772;DHT22;12556;55.748;13.194;2023-08-21T10:41:40;25.90;99.50
11772;DHT22;12556;55.748;13.194;2023-08-21T10:44:07;26.00;99.80
11772;DHT22;12556;55.748;13.194;2023-08-21T10:46:50;26.00;99.60
11772;DHT22;12556;55.748;13.194;2023-08-21T10:49:17;26.10;99.70
11772;DHT22;12556;55.748;13.194;2023-08-21T10:51:44;26.10;99.40
11772;DHT22;12556;55.748;13.194;2023-08-21T10:54:13;26.10;99.30
11772;DHT22;12556;55.748;13.194;2023-08-21T10:56:40;25.80;99.20
11772;DHT22;12556;55.748;13.194;2023-08-21T10:59:07;25.60;99.50
11772;DHT22;12556;55.748;13.194;2023-08-21T11:01:43;25.70;99.30
11772;DHT22;12556;55.748;13.194;2023-08-21T11:04:10;25.80;99.50
11772;DHT22;12556;55.748;13.194;2023-08-21T11:06:38;25.80;99.30
11772;DHT22;12556;55.748;13.194;2023-08-21T11:09:05;25.70;99.10
11772;DHT22;12556;55.748;13.194;2023-08-21T11:11:35;25.60;99.50
11772;DHT22;12556;55.748;13.194;2023-08-21T11:14:02;25.70;99.40
11772;DHT22;12556;55.748;13.194;2023-08-21T11:16:30;25.70;99.10
11772;DHT22;12556;55.748;13.194;2023-08-21T11:18:57;25.60;99.20
11772;DHT22;12556;55.748;13.194;2023-08-21T11:21:29;25.70;99.40
11772;DHT22;12556;55.748;13.194;2023-08-21T11:23:56;25.80;99.40
11772;DHT22;12556;55.748;13.194;2023-08-21T11:26:25;25.90;99.20
11772;DHT22;12556;55.748;13.194;2023-08-21T11:28:55;26.10;99.20
11772;DHT22;12556;55.748;13.194;2023-08-21T11:31:22;26.40;98.60
11772;DHT22;12556;55.748;13.194;2023-08-21T11:33:50;26.40;98.50
11772;DHT22;12556;55.748;13.194;2023-08-21T11:36:18;26.30;98.40
11772;DHT22;12556;55.748;13.194;2023-08-21T11:38:58;26.00;98.50
11772;DHT22;12556;55.748;13.194;2023-08-21T11:41:25;26.10;98.60
11772;DHT22;12556;55.748;13.194;2023-08-21T11:44:01;26.30;98.60
11772;DHT22;12556;55.748;13.194;2023-08-21T11:46:29;26.70;98.20
11772;DHT22;12556;55.748;13.194;2023-08-21T11:48:56;26.60;98.20
11772;DHT22;12556;55.748;13.194;2023-08-21T11:51:23;26.70;98.00
11772;DHT22;12556;55.748;13.194;2023-08-21T11:53:50;27.00;98.10
11772;DHT22;12556;55.748;13.194;2023-08-21T11:56:17;27.20;97.70
11772;DHT22;12556;55.748;13.194;2023-08-21T11:58:46;27.40;97.30
11772;DHT22;12556;55.748;13.194;2023-08-21T12:01:19;27.40;97.00
11772;DHT22;12556;55.748;13.194;2023-08-21T12:03:46;27.40;96.80
11772;DHT22;12556;55.748;13.194;2023-08-21T12:06:20;27.50;96.80
11772;DHT22;12556;55.748;13.194;2023-08-21T12:08:47;27.60;97.00
11772;DHT22;12556;55.748;13.194;2023-08-21T12:11:14;27.40;96.30
11772;DHT22;12556;55.748;13.194;2023-08-21T12:13:41;27.20;96.60
11772;DHT22;12556;55.748;13.194;2023-08-21T12:16:08;27.10;96.40
11772;DHT22;12556;55.748;13.194;2023-08-21T12:18:36;27.00;96.70
11772;DHT22;12556;55.748;13.194;2023-08-21T12:21:03;27.30;96.70
11772;DHT22;12556;55.748;13.194;2023-08-21T12:23:30;27.50;96.50
11772;DHT22;12556;55.748;13.194;2023-08-21T12:25:57;27.70;96.10
11772;DHT22;12556;55.748;13.194;2023-08-21T12:28:24;27.90;95.80
11772;DHT22;12556;55.748;13.194;2023-08-21T12:30:51;27.90;95.90
11772;DHT22;12556;55.748;13.194;2023-08-21T12:33:18;28.00;95.60
11772;DHT22;12556;55.748;13.194;2023-08-21T12:35:46;27.90;95.20
11772;DHT22;12556;55.748;13.194;2023-08-21T12:38:13;27.80;95.50
11772;DHT22;12556;55.748;13.194;2023-08-21T12:40:40;27.80;95.20
11772;DHT22;12556;55.748;13.194;2023-08-21T12:43:07;27.70;95.20
11772;DHT22;12556;55.748;13.194;2023-08-21T12:45:36;27.70;95.40
11772;DHT22;12556;55.748;13.194;2023-08-21T12:48:03;27.80;95.10
11772;DHT22;12556;55.748;13.194;2023-08-21T12:50:30;27.80;95.30
11772;DHT22;12556;55.748;13.194;2023-08-21T12:52:59;27.90;95.00
11772;DHT22;12556;55.748;13.194;2023-08-21T12:55:26;27.90;94.60
11772;DHT22;12556;55.748;13.194;2023-08-21T12:57:53;27.90;94.70
11772;DHT22;12556;55.748;13.194;2023-08-21T13:00:20;27.90;94.60
11772;DHT22;12556;55.748;13.194;2023-08-21T13:02:47;28.00;94.60
11772;DHT22;12556;55.748;13.194;2023-08-21T13:05:14;28.10;94.40
11772;DHT22;12556;55.748;13.194;2023-08-21T13:07:41;28.10;94.30
11772;DHT22;12556;55.748;13.194;2023-08-21T13:10:10;28.00;94.30
11772;DHT22;12556;55.748;13.194;2023-08-21T13:12:37;28.10;94.30
11772;DHT22;12556;55.748;13.194;2023-08-21T13:15:04;28.00;94.30
11772;DHT22;12556;55.748;13.194;2023-08-21T13:17:33;27.90;94.10
11772;DHT22;12556;55.748;13.194;2023-08-21T13:19:59;27.70;94.10
11772;DHT22;12556;55.748;13.194;2023-08-21T13:22:26;27.60;94.10
11772;DHT22;12556;55.748;13.194;2023-08-21T13:24:53;27.40;94.10
11772;DHT22;12556;55.748;13.194;2023-08-21T13:27:21;27.30;93.60
11772;DHT22;12556;55.748;13.194;2023-08-21T13:29:48;27.20;93.90
11772;DHT22;12556;55.748;13.194;2023-08-21T13:32:15;27.20;94.00
11772;DHT22;12556;55.748;13.194;2023-08-21T13:34:42;27.30;93.90
11772;DHT22;12556;55.748;13.194;2023-08-21T13:37:09;27.30;93.40
11772;DHT22;12556;55.748;13.194;2023-08-21T13:39:36;27.30;93.20
11772;DHT22;12556;55.748;13.194;2023-08-21T13:42:03;27.40;93.10
11772;DHT22;12556;55.748;13.194;2023-08-21T13:44:32;27.30;93.30
11772;DHT22;12556;55.748;13.194;2023-08-21T13:46:58;27.50;93.30
11772;DHT22;12556;55.748;13.194;2023-08-21T13:49:25;27.70;93.10
11772;DHT22;12556;55.748;13.194;2023-08-21T13:51:52;27.70;92.80
11772;DHT22;12556;55.748;13.194;2023-08-21T13:54:19;27.70;92.10
11772;DHT22;12556;55.748;13.194;2023-08-21T13:56:46;27.80;91.90
11772;DHT22;12556;55.748;13.194;2023-08-21T13:59:13;27.60;92.10
11772;DHT22;12556;55.748;13.194;2023-08-21T14:01:41;27.40;92.20
11772;DHT22;12556;55.748;13.194;2023-08-21T14:04:08;27.30;92.40
11772;DHT22;12556;55.748;13.194;2023-08-21T14:06:35;27.20;92.50
11772;DHT22;12556;55.748;13.194;2023-08-21T14:09:02;27.20;92.80
11772;DHT22;12556;55.748;13.194;2023-08-21T14:11:29;27.20;92.40
11772;DHT22;12556;55.748;13.194;2023-08-21T14:13:55;27.10;92.50
11772;DHT22;12556;55.748;13.194;2023-08-21T14:16:22;27.00;92.80
11772;DHT22;12556;55.748;13.194;2023-08-21T14:18:51;27.00;92.80
11772;DHT22;12556;55.748;13.194;2023-08-21T14:21:18;26.90;92.70
11772;DHT22;12556;55.748;13.194;2023-08-21T14:23:44;26.80;93.20
11772;DHT22;12556;55.748;13.194;2023-08-21T14:26:11;26.80;93.20
11772;DHT22;12556;55.748;13.194;2023-08-21T14:28:38;26.80;93.30
11772;DHT22;12556;55.748;13.194;2023-08-21T14:31:05;26.70;93.30
11772;DHT22;12556;55.748;13.194;2023-08-21T14:33:32;26.80;93.20
11772;DHT22;12556;55.748;13.194;2023-08-21T14:36:01;26.70;93.00
11772;DHT22;12556;55.748;13.194;2023-08-21T14:38:27;26.50;93.30
11772;DHT22;12556;55.748;13.194;2023-08-21T14:40:54;26.40;93.80
11772;DHT22;12556;55.748;13.194;2023-08-21T14:43:21;26.40;93.70
11772;DHT22;12556;55.748;13.194;2023-08-21T14:45:48;26.40;93.40
11772;DHT22;12556;55.748;13.194;2023-08-21T14:48:16;26.30;93.30
11772;DHT22;12556;55.748;13.194;2023-08-21T14:50:44;26.30;93.60
11772;DHT22;12556;55.748;13.194;2023-08-21T14:53:12;26.30;93.30
11772;DHT22;12556;55.748;13.194;2023-08-21T14:55:39;26.10;93.30
11772;DHT22;12556;55.748;13.194;2023-08-21T14:58:06;25.90;93.80
11772;DHT22;12556;55.748;13.194;2023-08-21T15:00:35;25.90;94.00
11772;DHT22;12556;55.748;13.194;2023-08-21T15:03:02;25.90;94.10
11772;DHT22;12556;55.748;13.194;2023-08-21T15:05:29;25.90;93.90
11772;DHT22;12556;55.748;13.194;2023-08-21T15:07:56;25.90;94.00
11772;DHT22;12556;55.748;13.194;2023-08-21T15:10:27;25.80;94.30
11772;DHT22;12556;55.748;13.194;2023-08-21T15:12:54;25.70;94.30
11772;DHT22;12556;55.748;13.194;2023-08-21T15:15:21;25.50;94.20
11772;DHT22;12556;55.748;13.194;2023-08-21T15:17:48;25.30;94.20
11772;DHT22;12556;55.748;13.194;2023-08-21T15:20:15;25.20;94.40